Goudeau, Louisiana
Current Conditions -  °F | °C
As of 4:15 PM on Saturday 20 Dec 2014 (Local Time) from KOPL Reporting Station
Scattered Clouds Scattered Clouds  
Wind Chill: 53°   Ceiling: Unl
Heat Index: 53°   Visibility: 10mi
Dew Point: 46°   Wind: 5mph
Humidity: 79%   Direction: 30°NNE
Pressure: 30.14"   Gusts: NA
Location:  30.9447°N, 92.1075°W
Report Text: KOPL 202215Z AUTO 03004KT 10SM SCT016 12/08 A3014 RMK AO2 T01150079
Loading
Personal Weather Stations






























Interactive Weather Map New forecast layout! Learn more

10-Day Weather Forecast

Advertisements
Track Severe Weather on mobile